latitude = 43° 31' 23''N | Length = 005° 37' 16''W

gijón weather station Surf Gijón - Asturias
26 meters above sea level | 85,3018 feet above sea level

Surf variety

One variety of stand-up surfing is paddle boarding. Another prominent form of surfing is body boarding, when a surfer rides a wave on a bodyboard, either lying on their belly, drop knee, or sometimes even standing up on a body board. Other types of surfing include kneeboard, surf matting (riding inflatable mats), and using foils. Body surfing, where the wave is surfed without a board, using the surfer's own body to catch and ride the wave, is very common and is considered by some to be the purest form of surfing.

Date, time, temperature, wind direction and speed, humidity and pressure

  • 11-04-2019 16:00:00 | 12.50°C | Oeste |10.00 km/h | 80.00% | 1019.60 hPa
  • 11-04-2019 15:00:00 | 12.20°C | Oeste |7.00 km/h | 83.00% | 1019.80 hPa
  • 11-04-2019 14:00:00 | 12.00°C | Sudoeste |6.00 km/h | 82.00% | 1019.70 hPa
  • 11-04-2019 13:00:00 | 11.20°C | Sur |5.00 km/h | 87.00% | 1019.90 hPa
  • 11-04-2019 12:00:00 | 11.30°C | Sudoeste |4.00 km/h | 83.00% | 1019.70 hPa
  • 11-04-2019 11:00:00 | 10.70°C | Oeste |5.00 km/h | 82.00% | 1019.40 hPa
  • 11-04-2019 10:00:00 | 10.00°C | Sudoeste |4.00 km/h | 85.00% | 1019.00 hPa
  • 11-04-2019 09:00:00 | 9.30°C | Sudoeste |4.00 km/h | 91.00% | 1018.80 hPa
  • 11-04-2019 08:00:00 | 8.60°C | Noroeste |2.00 km/h | 95.00% | 1018.60 hPa
  • 11-04-2019 07:00:00 | 8.40°C | Sudoeste |5.00 km/h | 96.00% | 1018.20 hPa
  • 11-04-2019 06:00:00 | 8.30°C | Sudoeste |4.00 km/h | 98.00% | 1018.50 hPa
  • 11-04-2019 05:00:00 | 8.30°C | Sur |3.00 km/h | 99.00% | 1018.40 hPa
  • 11-04-2019 04:00:00 | 8.10°C | Norte |3.00 km/h | 99.00% | 1018.30 hPa
  • 11-04-2019 03:00:00 | 8.10°C | Norte |3.00 km/h | 99.00% | 1018.30 hPa
  • 11-04-2019 02:00:00 | 8.20°C | Norte |2.00 km/h | 99.00% | 1018.50 hPa
  • 11-04-2019 01:00:00 | 8.10°C | Este |4.00 km/h | 97.00% | 1018.60 hPa
  • 11-04-2019 00:00:00 | 9.30°C | Este |2.00 km/h | 93.00% | 1018.50 hPa
  • 10-04-2019 23:00:00 | 9.90°C | Sur |6.00 km/h | 89.00% | 1018.50 hPa
  • 10-04-2019 22:00:00 | 11.90°C | Noroeste |6.00 km/h | 83.00% | 1017.80 hPa
  • 10-04-2019 21:00:00 | 12.10°C | Noroeste |6.00 km/h | 80.00% | 1017.00 hPa
  • 10-04-2019 20:00:00 | 12.60°C | Norte |8.00 km/h | 77.00% | 1016.50 hPa
  • 10-04-2019 19:00:00 | 13.90°C | Noroeste |10.00 km/h | 72.00% | 1016.20 hPa
  • 10-04-2019 18:00:00 | 14.00°C | Noroeste |11.00 km/h | 71.00% | 1015.80 hPa
  • 10-04-2019 17:00:00 | 13.80°C | Norte |13.00 km/h | 78.00% | 1015.50 hPa

    • The best beaches of Asturias.

      Maps, GPS coordinates, wind, tidal wave, Asturias news, photos and more related to the world of Surf data. https://surf-asturias.com